sensor_id;sensor_type;location;lat;lon;timestamp;temperature;humidity
55634;DHT22;41504;53.162;6.788;2023-11-21T00:00:19;9.30;99.90
55634;DHT22;41504;53.162;6.788;2023-11-21T00:02:45;9.30;99.90
55634;DHT22;41504;53.162;6.788;2023-11-21T00:05:12;9.30;99.90
55634;DHT22;41504;53.162;6.788;2023-11-21T00:07:40;9.40;99.90
55634;DHT22;41504;53.162;6.788;2023-11-21T00:10:07;9.40;99.90
55634;DHT22;41504;53.162;6.788;2023-11-21T00:12:34;9.40;99.90
55634;DHT22;41504;53.162;6.788;2023-11-21T00:15:00;9.40;99.90
55634;DHT22;41504;53.162;6.788;2023-11-21T00:17:27;9.40;99.90
55634;DHT22;41504;53.162;6.788;2023-11-21T00:19:52;9.40;99.90
55634;DHT22;41504;53.162;6.788;2023-11-21T00:22:18;9.40;99.90
55634;DHT22;41504;53.162;6.788;2023-11-21T00:24:45;9.40;99.90
55634;DHT22;41504;53.162;6.788;2023-11-21T00:27:11;9.40;99.90
55634;DHT22;41504;53.162;6.788;2023-11-21T00:29:40;9.40;99.90
55634;DHT22;41504;53.162;6.788;2023-11-21T00:32:07;9.40;99.90
55634;DHT22;41504;53.162;6.788;2023-11-21T00:34:33;9.40;99.90
55634;DHT22;41504;53.162;6.788;2023-11-21T00:37:00;9.40;99.90
55634;DHT22;41504;53.162;6.788;2023-11-21T00:39:29;9.30;99.90
55634;DHT22;41504;53.162;6.788;2023-11-21T00:41:55;9.30;99.90
55634;DHT22;41504;53.162;6.788;2023-11-21T00:44:21;9.30;99.90
55634;DHT22;41504;53.162;6.788;2023-11-21T00:46:49;9.30;99.90
55634;DHT22;41504;53.162;6.788;2023-11-21T00:49:16;9.30;99.90
55634;DHT22;41504;53.162;6.788;2023-11-21T00:51:41;9.30;99.90
55634;DHT22;41504;53.162;6.788;2023-11-21T00:54:07;9.30;99.90
55634;DHT22;41504;53.162;6.788;2023-11-21T00:56:33;9.30;99.90
55634;DHT22;41504;53.162;6.788;2023-11-21T00:58:59;9.30;99.90
55634;DHT22;41504;53.162;6.788;2023-11-21T01:01:25;9.30;99.90
55634;DHT22;41504;53.162;6.788;2023-11-21T01:03:51;9.30;99.90
55634;DHT22;41504;53.162;6.788;2023-11-21T01:06:17;9.30;99.90
55634;DHT22;41504;53.162;6.788;2023-11-21T01:08:45;9.30;99.90
55634;DHT22;41504;53.162;6.788;2023-11-21T01:11:12;9.30;99.90
55634;DHT22;41504;53.162;6.788;2023-11-21T01:13:41;9.40;99.90
55634;DHT22;41504;53.162;6.788;2023-11-21T01:16:08;9.40;99.90
55634;DHT22;41504;53.162;6.788;2023-11-21T01:18:35;9.40;99.90
55634;DHT22;41504;53.162;6.788;2023-11-21T01:21:01;9.50;99.90
55634;DHT22;41504;53.162;6.788;2023-11-21T01:23:27;9.50;99.90
55634;DHT22;41504;53.162;6.788;2023-11-21T01:25:56;9.50;99.90
55634;DHT22;41504;53.162;6.788;2023-11-21T01:28:22;9.50;99.90
55634;DHT22;41504;53.162;6.788;2023-11-21T01:30:48;9.50;99.90
55634;DHT22;41504;53.162;6.788;2023-11-21T01:33:14;9.50;99.90
55634;DHT22;41504;53.162;6.788;2023-11-21T01:35:42;9.50;99.90
55634;DHT22;41504;53.162;6.788;2023-11-21T01:38:08;9.60;99.90
55634;DHT22;41504;53.162;6.788;2023-11-21T01:40:35;9.60;99.90
55634;DHT22;41504;53.162;6.788;2023-11-21T01:43:01;9.60;99.90
55634;DHT22;41504;53.162;6.788;2023-11-21T01:45:29;9.60;99.90
55634;DHT22;41504;53.162;6.788;2023-11-21T01:47:59;9.60;99.90
55634;DHT22;41504;53.162;6.788;2023-11-21T01:50:26;9.60;99.90
55634;DHT22;41504;53.162;6.788;2023-11-21T01:52:52;9.60;99.90
55634;DHT22;41504;53.162;6.788;2023-11-21T01:55:19;9.60;99.90
55634;DHT22;41504;53.162;6.788;2023-11-21T01:57:48;9.60;99.90
55634;DHT22;41504;53.162;6.788;2023-11-21T02:00:14;9.60;99.90
55634;DHT22;41504;53.162;6.788;2023-11-21T02:02:45;9.20;99.90
55634;DHT22;41504;53.162;6.788;2023-11-21T02:05:12;9.50;99.90
55634;DHT22;41504;53.162;6.788;2023-11-21T02:07:42;9.50;99.90
55634;DHT22;41504;53.162;6.788;2023-11-21T02:10:11;9.60;99.90
55634;DHT22;41504;53.162;6.788;2023-11-21T02:12:43;9.60;99.90
55634;DHT22;41504;53.162;6.788;2023-11-21T02:15:13;9.60;99.90
55634;DHT22;41504;53.162;6.788;2023-11-21T02:17:45;9.60;99.90
55634;DHT22;41504;53.162;6.788;2023-11-21T02:20:23;9.60;99.90
55634;DHT22;41504;53.162;6.788;2023-11-21T02:22:53;9.60;99.90
55634;DHT22;41504;53.162;6.788;2023-11-21T02:25:26;9.60;99.90
55634;DHT22;41504;53.162;6.788;2023-11-21T02:27:59;9.70;99.90
55634;DHT22;41504;53.162;6.788;2023-11-21T02:30:26;9.60;99.90
55634;DHT22;41504;53.162;6.788;2023-11-21T02:32:54;9.60;99.90
55634;DHT22;41504;53.162;6.788;2023-11-21T02:35:20;9.60;99.90
55634;DHT22;41504;53.162;6.788;2023-11-21T02:37:51;9.60;99.90
55634;DHT22;41504;53.162;6.788;2023-11-21T02:40:17;9.70;99.90
55634;DHT22;41504;53.162;6.788;2023-11-21T02:42:44;9.60;99.90
55634;DHT22;41504;53.162;6.788;2023-11-21T02:45:10;9.70;99.90
55634;DHT22;41504;53.162;6.788;2023-11-21T02:47:38;9.70;99.90
55634;DHT22;41504;53.162;6.788;2023-11-21T02:50:05;9.70;99.90
55634;DHT22;41504;53.162;6.788;2023-11-21T02:52:31;9.70;99.90
55634;DHT22;41504;53.162;6.788;2023-11-21T02:54:58;9.70;99.90
55634;DHT22;41504;53.162;6.788;2023-11-21T02:57:24;9.70;99.90
55634;DHT22;41504;53.162;6.788;2023-11-21T02:59:50;9.70;99.90
55634;DHT22;41504;53.162;6.788;2023-11-21T03:02:19;9.70;99.90
55634;DHT22;41504;53.162;6.788;2023-11-21T03:04:44;9.80;99.90
55634;DHT22;41504;53.162;6.788;2023-11-21T03:07:10;9.70;99.90
55634;DHT22;41504;53.162;6.788;2023-11-21T03:09:39;9.70;99.90
55634;DHT22;41504;53.162;6.788;2023-11-21T03:12:05;9.70;99.90
55634;DHT22;41504;53.162;6.788;2023-11-21T03:14:31;9.70;99.90
55634;DHT22;41504;53.162;6.788;2023-11-21T03:16:57;9.70;99.90
55634;DHT22;41504;53.162;6.788;2023-11-21T03:19:23;9.80;99.90
55634;DHT22;41504;53.162;6.788;2023-11-21T03:21:49;9.80;99.90
55634;DHT22;41504;53.162;6.788;2023-11-21T03:24:15;9.80;99.90
55634;DHT22;41504;53.162;6.788;2023-11-21T03:26:45;9.80;99.90
55634;DHT22;41504;53.162;6.788;2023-11-21T03:29:12;9.80;99.90
55634;DHT22;41504;53.162;6.788;2023-11-21T03:31:38;9.80;99.90
55634;DHT22;41504;53.162;6.788;2023-11-21T03:34:03;9.80;99.90
55634;DHT22;41504;53.162;6.788;2023-11-21T03:36:29;9.80;99.90
55634;DHT22;41504;53.162;6.788;2023-11-21T03:38:55;9.80;99.90
55634;DHT22;41504;53.162;6.788;2023-11-21T03:41:21;9.80;99.90
55634;DHT22;41504;53.162;6.788;2023-11-21T03:43:47;9.80;99.90
55634;DHT22;41504;53.162;6.788;2023-11-21T03:46:13;9.80;99.90
55634;DHT22;41504;53.162;6.788;2023-11-21T03:48:39;9.80;99.90
55634;DHT22;41504;53.162;6.788;2023-11-21T03:51:04;9.00;99.90
55634;DHT22;41504;53.162;6.788;2023-11-21T03:53:30;9.80;99.90
55634;DHT22;41504;53.162;6.788;2023-11-21T03:55:57;9.80;99.90
55634;DHT22;41504;53.162;6.788;2023-11-21T03:58:26;9.80;99.90
55634;DHT22;41504;53.162;6.788;2023-11-21T04:00:52;9.80;99.90
55634;DHT22;41504;53.162;6.788;2023-11-21T04:03:18;9.80;99.90
55634;DHT22;41504;53.162;6.788;2023-11-21T04:05:45;9.80;99.90
55634;DHT22;41504;53.162;6.788;2023-11-21T04:08:11;9.90;99.90
55634;DHT22;41504;53.162;6.788;2023-11-21T04:10:37;9.90;99.90
55634;DHT22;41504;53.162;6.788;2023-11-21T04:13:05;9.90;99.90
55634;DHT22;41504;53.162;6.788;2023-11-21T04:15:32;9.90;99.90
55634;DHT22;41504;53.162;6.788;2023-11-21T04:17:58;9.90;99.90
55634;DHT22;41504;53.162;6.788;2023-11-21T04:20:24;9.90;99.90
55634;DHT22;41504;53.162;6.788;2023-11-21T04:22:50;9.90;99.90
55634;DHT22;41504;53.162;6.788;2023-11-21T04:25:16;9.90;99.90
55634;DHT22;41504;53.162;6.788;2023-11-21T04:27:42;9.90;99.90
55634;DHT22;41504;53.162;6.788;2023-11-21T04:30:10;9.90;99.90
55634;DHT22;41504;53.162;6.788;2023-11-21T04:32:36;9.90;99.90
55634;DHT22;41504;53.162;6.788;2023-11-21T04:35:02;9.90;99.90
55634;DHT22;41504;53.162;6.788;2023-11-21T04:37:29;9.90;99.90
55634;DHT22;41504;53.162;6.788;2023-11-21T04:39:55;9.90;99.90
55634;DHT22;41504;53.162;6.788;2023-11-21T04:42:21;9.90;99.90
55634;DHT22;41504;53.162;6.788;2023-11-21T04:44:48;9.90;99.90
55634;DHT22;41504;53.162;6.788;2023-11-21T04:47:13;9.80;99.90
55634;DHT22;41504;53.162;6.788;2023-11-21T04:49:42;9.90;99.90
55634;DHT22;41504;53.162;6.788;2023-11-21T04:52:07;9.90;99.90
55634;DHT22;41504;53.162;6.788;2023-11-21T04:54:35;9.90;99.90
55634;DHT22;41504;53.162;6.788;2023-11-21T04:57:01;9.90;99.90
55634;DHT22;41504;53.162;6.788;2023-11-21T04:59:27;9.90;99.90
55634;DHT22;41504;53.162;6.788;2023-11-21T05:01:53;9.90;99.90
55634;DHT22;41504;53.162;6.788;2023-11-21T05:04:20;9.90;99.90
55634;DHT22;41504;53.162;6.788;2023-11-21T05:06:47;9.90;99.90
55634;DHT22;41504;53.162;6.788;2023-11-21T05:09:13;9.90;99.90
55634;DHT22;41504;53.162;6.788;2023-11-21T05:11:39;9.90;99.90
55634;DHT22;41504;53.162;6.788;2023-11-21T05:14:06;9.90;99.90
55634;DHT22;41504;53.162;6.788;2023-11-21T05:16:32;9.90;99.90
55634;DHT22;41504;53.162;6.788;2023-11-21T05:18:59;9.90;99.90
55634;DHT22;41504;53.162;6.788;2023-11-21T05:21:27;9.90;99.90
55634;DHT22;41504;53.162;6.788;2023-11-21T05:23:53;9.90;99.90
55634;DHT22;41504;53.162;6.788;2023-11-21T05:26:19;9.90;99.90
55634;DHT22;41504;53.162;6.788;2023-11-21T05:28:45;9.80;99.90
55634;DHT22;41504;53.162;6.788;2023-11-21T05:31:10;9.90;99.90
55634;DHT22;41504;53.162;6.788;2023-11-21T05:33:36;9.80;99.90
55634;DHT22;41504;53.162;6.788;2023-11-21T05:36:02;9.80;99.90
55634;DHT22;41504;53.162;6.788;2023-11-21T05:38:28;9.80;99.90
55634;DHT22;41504;53.162;6.788;2023-11-21T05:40:55;9.80;99.90
55634;DHT22;41504;53.162;6.788;2023-11-21T05:43:20;9.80;99.90
55634;DHT22;41504;53.162;6.788;2023-11-21T05:45:46;9.80;99.90
55634;DHT22;41504;53.162;6.788;2023-11-21T05:48:12;9.80;99.90
55634;DHT22;41504;53.162;6.788;2023-11-21T05:50:38;9.80;99.90
55634;DHT22;41504;53.162;6.788;2023-11-21T05:53:04;9.80;99.90
55634;DHT22;41504;53.162;6.788;2023-11-21T05:55:29;9.80;99.90
55634;DHT22;41504;53.162;6.788;2023-11-21T05:57:55;9.80;99.90
55634;DHT22;41504;53.162;6.788;2023-11-21T06:00:22;9.80;99.90
55634;DHT22;41504;53.162;6.788;2023-11-21T06:02:51;9.80;99.90
55634;DHT22;41504;53.162;6.788;2023-11-21T06:05:20;9.80;99.90
55634;DHT22;41504;53.162;6.788;2023-11-21T06:07:46;9.80;99.90
55634;DHT22;41504;53.162;6.788;2023-11-21T06:10:12;9.80;99.90
55634;DHT22;41504;53.162;6.788;2023-11-21T06:12:40;9.80;99.90
55634;DHT22;41504;53.162;6.788;2023-11-21T06:15:09;9.80;99.90
55634;DHT22;41504;53.162;6.788;2023-11-21T06:17:37;9.80;99.90
55634;DHT22;41504;53.162;6.788;2023-11-21T06:20:05;9.90;99.90
55634;DHT22;41504;53.162;6.788;2023-11-21T06:22:39;9.80;99.90
55634;DHT22;41504;53.162;6.788;2023-11-21T06:25:06;9.80;99.90
55634;DHT22;41504;53.162;6.788;2023-11-21T06:27:34;9.80;99.90
55634;DHT22;41504;53.162;6.788;2023-11-21T06:30:01;9.80;99.90
55634;DHT22;41504;53.162;6.788;2023-11-21T06:32:28;9.80;99.90
55634;DHT22;41504;53.162;6.788;2023-11-21T06:34:56;9.80;99.90
55634;DHT22;41504;53.162;6.788;2023-11-21T06:37:22;9.70;99.90
55634;DHT22;41504;53.162;6.788;2023-11-21T06:39:54;9.60;99.90
55634;DHT22;41504;53.162;6.788;2023-11-21T06:42:20;9.70;99.90
55634;DHT22;41504;53.162;6.788;2023-11-21T06:44:46;9.60;99.90
55634;DHT22;41504;53.162;6.788;2023-11-21T06:47:12;9.60;99.90
55634;DHT22;41504;53.162;6.788;2023-11-21T06:49:38;9.60;99.90
55634;DHT22;41504;53.162;6.788;2023-11-21T06:52:04;9.60;99.90
55634;DHT22;41504;53.162;6.788;2023-11-21T06:54:31;9.60;99.90
55634;DHT22;41504;53.162;6.788;2023-11-21T06:56:57;9.60;99.90
55634;DHT22;41504;53.162;6.788;2023-11-21T06:59:23;9.60;99.90
55634;DHT22;41504;53.162;6.788;2023-11-21T07:01:50;9.60;99.90
55634;DHT22;41504;53.162;6.788;2023-11-21T07:04:19;9.60;99.90
55634;DHT22;41504;53.162;6.788;2023-11-21T07:06:44;9.50;99.90
55634;DHT22;41504;53.162;6.788;2023-11-21T07:09:10;9.50;99.90
55634;DHT22;41504;53.162;6.788;2023-11-21T07:11:37;9.50;99.90
55634;DHT22;41504;53.162;6.788;2023-11-21T07:14:04;9.50;99.90
55634;DHT22;41504;53.162;6.788;2023-11-21T07:16:36;9.50;99.90
55634;DHT22;41504;53.162;6.788;2023-11-21T07:19:06;9.50;99.90
55634;DHT22;41504;53.162;6.788;2023-11-21T07:21:33;9.40;99.90
55634;DHT22;41504;53.162;6.788;2023-11-21T07:24:00;9.40;99.90
55634;DHT22;41504;53.162;6.788;2023-11-21T07:26:29;9.50;99.90
55634;DHT22;41504;53.162;6.788;2023-11-21T07:28:55;9.40;99.90
55634;DHT22;41504;53.162;6.788;2023-11-21T07:31:22;9.40;99.90
55634;DHT22;41504;53.162;6.788;2023-11-21T07:33:54;9.50;99.90
55634;DHT22;41504;53.162;6.788;2023-11-21T07:36:23;9.40;99.90
55634;DHT22;41504;53.162;6.788;2023-11-21T07:38:50;9.40;99.90
55634;DHT22;41504;53.162;6.788;2023-11-21T07:41:17;9.40;99.90
55634;DHT22;41504;53.162;6.788;2023-11-21T07:43:46;9.40;99.90
55634;DHT22;41504;53.162;6.788;2023-11-21T07:46:12;9.40;99.90
55634;DHT22;41504;53.162;6.788;2023-11-21T07:48:39;9.40;99.90
55634;DHT22;41504;53.162;6.788;2023-11-21T07:51:06;9.40;99.90
55634;DHT22;41504;53.162;6.788;2023-11-21T07:53:32;9.40;99.90
55634;DHT22;41504;53.162;6.788;2023-11-21T07:56:06;9.40;99.90
55634;DHT22;41504;53.162;6.788;2023-11-21T07:58:33;9.40;99.90
55634;DHT22;41504;53.162;6.788;2023-11-21T08:01:00;9.30;99.90
55634;DHT22;41504;53.162;6.788;2023-11-21T08:03:25;9.30;99.90
55634;DHT22;41504;53.162;6.788;2023-11-21T08:05:58;9.40;99.90
55634;DHT22;41504;53.162;6.788;2023-11-21T08:08:24;9.30;99.90
55634;DHT22;41504;53.162;6.788;2023-11-21T08:10:50;9.40;99.90
55634;DHT22;41504;53.162;6.788;2023-11-21T08:13:26;9.30;99.90
55634;DHT22;41504;53.162;6.788;2023-11-21T08:15:56;9.40;99.90
55634;DHT22;41504;53.162;6.788;2023-11-21T08:18:27;9.40;99.90
55634;DHT22;41504;53.162;6.788;2023-11-21T08:20:54;9.30;99.90
55634;DHT22;41504;53.162;6.788;2023-11-21T08:23:21;9.30;99.90
55634;DHT22;41504;53.162;6.788;2023-11-21T08:25:54;9.30;99.90
55634;DHT22;41504;53.162;6.788;2023-11-21T08:28:20;9.30;99.90
55634;DHT22;41504;53.162;6.788;2023-11-21T08:30:47;9.30;99.90
55634;DHT22;41504;53.162;6.788;2023-11-21T08:33:14;9.40;99.90
55634;DHT22;41504;53.162;6.788;2023-11-21T08:35:39;9.40;99.90
55634;DHT22;41504;53.162;6.788;2023-11-21T08:38:05;9.30;99.90
55634;DHT22;41504;53.162;6.788;2023-11-21T08:40:31;9.30;99.90
55634;DHT22;41504;53.162;6.788;2023-11-21T08:42:57;9.30;99.90
55634;DHT22;41504;53.162;6.788;2023-11-21T08:45:27;9.30;99.90
55634;DHT22;41504;53.162;6.788;2023-11-21T08:47:53;9.30;99.90
55634;DHT22;41504;53.162;6.788;2023-11-21T08:50:19;9.10;99.90
55634;DHT22;41504;53.162;6.788;2023-11-21T08:52:46;9.30;99.90
55634;DHT22;41504;53.162;6.788;2023-11-21T08:55:12;9.30;99.90
55634;DHT22;41504;53.162;6.788;2023-11-21T08:57:43;9.30;99.90
55634;DHT22;41504;53.162;6.788;2023-11-21T09:00:09;9.30;99.90
55634;DHT22;41504;53.162;6.788;2023-11-21T09:02:40;9.20;99.90
55634;DHT22;41504;53.162;6.788;2023-11-21T09:05:10;9.20;99.90
55634;DHT22;41504;53.162;6.788;2023-11-21T09:07:38;9.20;99.90
55634;DHT22;41504;53.162;6.788;2023-11-21T09:10:04;9.30;99.90
55634;DHT22;41504;53.162;6.788;2023-11-21T09:12:34;9.30;99.90
55634;DHT22;41504;53.162;6.788;2023-11-21T09:15:04;9.30;99.90
55634;DHT22;41504;53.162;6.788;2023-11-21T09:17:30;9.30;99.90
55634;DHT22;41504;53.162;6.788;2023-11-21T09:19:56;9.30;99.90
55634;DHT22;41504;53.162;6.788;2023-11-21T09:22:23;9.30;99.90
55634;DHT22;41504;53.162;6.788;2023-11-21T09:24:51;9.30;99.90
55634;DHT22;41504;53.162;6.788;2023-11-21T09:27:18;9.30;99.90
55634;DHT22;41504;53.162;6.788;2023-11-21T09:29:46;9.30;99.90
55634;DHT22;41504;53.162;6.788;2023-11-21T09:32:13;9.30;99.90
55634;DHT22;41504;53.162;6.788;2023-11-21T09:34:41;9.30;99.90
55634;DHT22;41504;53.162;6.788;2023-11-21T09:37:07;9.30;99.90
55634;DHT22;41504;53.162;6.788;2023-11-21T09:39:34;9.30;99.90
55634;DHT22;41504;53.162;6.788;2023-11-21T09:42:12;9.30;99.90
55634;DHT22;41504;53.162;6.788;2023-11-21T09:44:48;9.30;99.90
55634;DHT22;41504;53.162;6.788;2023-11-21T09:47:19;9.30;99.90
55634;DHT22;41504;53.162;6.788;2023-11-21T09:49:54;9.30;99.90
55634;DHT22;41504;53.162;6.788;2023-11-21T09:52:25;9.30;99.90
55634;DHT22;41504;53.162;6.788;2023-11-21T09:54:55;9.30;99.90
55634;DHT22;41504;53.162;6.788;2023-11-21T09:57:25;9.30;99.90
55634;DHT22;41504;53.162;6.788;2023-11-21T09:59:54;9.50;99.90
55634;DHT22;41504;53.162;6.788;2023-11-21T10:02:27;9.30;99.90
55634;DHT22;41504;53.162;6.788;2023-11-21T10:04:55;9.30;99.90
55634;DHT22;41504;53.162;6.788;2023-11-21T10:07:23;9.30;99.90
55634;DHT22;41504;53.162;6.788;2023-11-21T10:09:52;9.30;99.90
55634;DHT22;41504;53.162;6.788;2023-11-21T10:12:19;9.40;99.90
55634;DHT22;41504;53.162;6.788;2023-11-21T10:14:51;9.30;99.90
55634;DHT22;41504;53.162;6.788;2023-11-21T10:17:18;9.40;99.90
55634;DHT22;41504;53.162;6.788;2023-11-21T10:19:47;9.40;99.90
55634;DHT22;41504;53.162;6.788;2023-11-21T10:22:16;9.40;99.90
55634;DHT22;41504;53.162;6.788;2023-11-21T10:24:43;9.40;99.90
55634;DHT22;41504;53.162;6.788;2023-11-21T10:27:09;9.40;99.90
55634;DHT22;41504;53.162;6.788;2023-11-21T10:29:35;9.50;99.90
55634;DHT22;41504;53.162;6.788;2023-11-21T10:32:04;9.50;99.90
55634;DHT22;41504;53.162;6.788;2023-11-21T10:34:31;9.50;99.90
55634;DHT22;41504;53.162;6.788;2023-11-21T10:36:57;9.50;99.90
55634;DHT22;41504;53.162;6.788;2023-11-21T10:39:24;9.50;99.90
55634;DHT22;41504;53.162;6.788;2023-11-21T10:41:54;9.50;99.90
55634;DHT22;41504;53.162;6.788;2023-11-21T10:44:20;9.50;99.90
55634;DHT22;41504;53.162;6.788;2023-11-21T10:46:54;9.50;99.90
55634;DHT22;41504;53.162;6.788;2023-11-21T10:49:27;9.60;99.90
55634;DHT22;41504;53.162;6.788;2023-11-21T10:51:53;9.60;99.90
55634;DHT22;41504;53.162;6.788;2023-11-21T10:54:20;9.60;99.90
55634;DHT22;41504;53.162;6.788;2023-11-21T10:57:06;9.60;99.90
55634;DHT22;41504;53.162;6.788;2023-11-21T10:59:33;9.60;99.90
55634;DHT22;41504;53.162;6.788;2023-11-21T11:01:58;9.60;99.90
55634;DHT22;41504;53.162;6.788;2023-11-21T11:04:27;9.60;99.90
55634;DHT22;41504;53.162;6.788;2023-11-21T11:07:02;9.60;99.90
55634;DHT22;41504;53.162;6.788;2023-11-21T11:09:31;9.60;99.90
55634;DHT22;41504;53.162;6.788;2023-11-21T11:12:01;9.60;99.90
55634;DHT22;41504;53.162;6.788;2023-11-21T11:14:27;9.60;99.90
55634;DHT22;41504;53.162;6.788;2023-11-21T11:16:54;9.60;99.90
55634;DHT22;41504;53.162;6.788;2023-11-21T11:19:24;9.60;99.90
55634;DHT22;41504;53.162;6.788;2023-11-21T11:32:40;9.60;99.90
55634;DHT22;41504;53.162;6.788;2023-11-21T11:35:33;9.80;99.90
55634;DHT22;41504;53.162;6.788;2023-11-21T11:38:02;9.60;99.90
55634;DHT22;41504;53.162;6.788;2023-11-21T11:40:41;9.60;99.90
55634;DHT22;41504;53.162;6.788;2023-11-21T11:43:10;9.60;99.90
55634;DHT22;41504;53.162;6.788;2023-11-21T11:45:37;9.70;99.90
55634;DHT22;41504;53.162;6.788;2023-11-21T11:48:11;9.70;99.90
55634;DHT22;41504;53.162;6.788;2023-11-21T11:51:03;9.70;99.90
55634;DHT22;41504;53.162;6.788;2023-11-21T11:53:41;9.60;99.90
55634;DHT22;41504;53.162;6.788;2023-11-21T11:56:26;9.70;99.90
55634;DHT22;41504;53.162;6.788;2023-11-21T11:58:58;9.70;99.90
55634;DHT22;41504;53.162;6.788;2023-11-21T12:01:26;9.70;99.90
55634;DHT22;41504;53.162;6.788;2023-11-21T12:06:41;9.70;99.90
55634;DHT22;41504;53.162;6.788;2023-11-21T12:09:07;9.70;99.90
55634;DHT22;41504;53.162;6.788;2023-11-21T12:11:33;9.80;99.90
55634;DHT22;41504;53.162;6.788;2023-11-21T12:14:02;9.70;99.90
55634;DHT22;41504;53.162;6.788;2023-11-21T12:16:28;9.70;99.90
55634;DHT22;41504;53.162;6.788;2023-11-21T12:18:58;9.70;99.90
55634;DHT22;41504;53.162;6.788;2023-11-21T12:21:25;9.70;99.90
55634;DHT22;41504;53.162;6.788;2023-11-21T12:23:53;9.80;99.90
55634;DHT22;41504;53.162;6.788;2023-11-21T12:26:18;9.90;99.90
55634;DHT22;41504;53.162;6.788;2023-11-21T12:28:52;9.90;99.90
55634;DHT22;41504;53.162;6.788;2023-11-21T12:31:28;9.90;99.90
55634;DHT22;41504;53.162;6.788;2023-11-21T12:33:55;10.10;99.90
55634;DHT22;41504;53.162;6.788;2023-11-21T12:36:24;10.00;99.90
55634;DHT22;41504;53.162;6.788;2023-11-21T12:38:54;10.00;99.90
55634;DHT22;41504;53.162;6.788;2023-11-21T12:41:20;10.00;99.90
55634;DHT22;41504;53.162;6.788;2023-11-21T12:43:47;10.00;99.90
55634;DHT22;41504;53.162;6.788;2023-11-21T12:46:13;10.10;99.90
55634;DHT22;41504;53.162;6.788;2023-11-21T12:48:44;10.20;99.90
55634;DHT22;41504;53.162;6.788;2023-11-21T12:51:13;10.20;99.90
55634;DHT22;41504;53.162;6.788;2023-11-21T12:53:42;10.30;99.90
55634;DHT22;41504;53.162;6.788;2023-11-21T12:56:11;10.30;99.90
55634;DHT22;41504;53.162;6.788;2023-11-21T12:58:45;10.30;99.90
55634;DHT22;41504;53.162;6.788;2023-11-21T13:01:19;10.20;99.90
55634;DHT22;41504;53.162;6.788;2023-11-21T13:03:48;10.20;99.90
55634;DHT22;41504;53.162;6.788;2023-11-21T13:06:15;10.20;99.90
55634;DHT22;41504;53.162;6.788;2023-11-21T13:08:41;10.20;99.90
55634;DHT22;41504;53.162;6.788;2023-11-21T13:11:11;10.10;99.90
55634;DHT22;41504;53.162;6.788;2023-11-21T13:13:36;10.10;99.90
55634;DHT22;41504;53.162;6.788;2023-11-21T13:16:06;10.00;99.90
55634;DHT22;41504;53.162;6.788;2023-11-21T13:18:34;9.90;99.90
55634;DHT22;41504;53.162;6.788;2023-11-21T13:21:02;9.90;99.90
55634;DHT22;41504;53.162;6.788;2023-11-21T13:23:41;9.90;99.90
55634;DHT22;41504;53.162;6.788;2023-11-21T13:26:08;9.90;99.90
55634;DHT22;41504;53.162;6.788;2023-11-21T13:28:35;9.90;99.90
55634;DHT22;41504;53.162;6.788;2023-11-21T13:31:03;9.80;99.90
55634;DHT22;41504;53.162;6.788;2023-11-21T13:33:35;9.80;99.90
55634;DHT22;41504;53.162;6.788;2023-11-21T13:36:06;9.70;99.90
55634;DHT22;41504;53.162;6.788;2023-11-21T13:38:35;9.80;99.90
55634;DHT22;41504;53.162;6.788;2023-11-21T13:41:03;9.70;99.90
55634;DHT22;41504;53.162;6.788;2023-11-21T13:43:32;9.70;99.90
55634;DHT22;41504;53.162;6.788;2023-11-21T13:45:59;9.70;99.90
55634;DHT22;41504;53.162;6.788;2023-11-21T13:48:38;9.70;99.90
55634;DHT22;41504;53.162;6.788;2023-11-21T13:51:11;9.60;99.90
55634;DHT22;41504;53.162;6.788;2023-11-21T13:53:47;9.60;99.90
55634;DHT22;41504;53.162;6.788;2023-11-21T13:56:15;9.60;99.90
55634;DHT22;41504;53.162;6.788;2023-11-21T13:58:53;9.60;99.90
55634;DHT22;41504;53.162;6.788;2023-11-21T14:01:24;9.50;99.90
55634;DHT22;41504;53.162;6.788;2023-11-21T14:04:05;9.50;99.90
55634;DHT22;41504;53.162;6.788;2023-11-21T14:06:44;9.50;99.90
55634;DHT22;41504;53.162;6.788;2023-11-21T14:09:22;9.50;99.90
55634;DHT22;41504;53.162;6.788;2023-11-21T14:11:55;9.50;99.90
55634;DHT22;41504;53.162;6.788;2023-11-21T14:14:27;9.40;99.90
55634;DHT22;41504;53.162;6.788;2023-11-21T14:16:54;9.40;99.90
55634;DHT22;41504;53.162;6.788;2023-11-21T14:19:25;9.40;99.90
55634;DHT22;41504;53.162;6.788;2023-11-21T14:21:57;9.40;99.90
55634;DHT22;41504;53.162;6.788;2023-11-21T14:24:23;9.40;99.90
55634;DHT22;41504;53.162;6.788;2023-11-21T14:26:50;9.40;99.90
55634;DHT22;41504;53.162;6.788;2023-11-21T14:29:18;9.30;99.90
55634;DHT22;41504;53.162;6.788;2023-11-21T14:31:55;9.30;99.90
55634;DHT22;41504;53.162;6.788;2023-11-21T14:34:24;9.20;99.90
55634;DHT22;41504;53.162;6.788;2023-11-21T14:36:52;9.20;99.90
55634;DHT22;41504;53.162;6.788;2023-11-21T14:39:18;9.20;99.90
55634;DHT22;41504;53.162;6.788;2023-11-21T14:41:53;9.20;99.90
55634;DHT22;41504;53.162;6.788;2023-11-21T14:44:23;9.20;99.90
55634;DHT22;41504;53.162;6.788;2023-11-21T14:46:52;9.20;99.90
55634;DHT22;41504;53.162;6.788;2023-11-21T14:49:20;9.20;99.90
55634;DHT22;41504;53.162;6.788;2023-11-21T14:51:49;9.20;99.90
55634;DHT22;41504;53.162;6.788;2023-11-21T14:54:35;9.20;99.90
55634;DHT22;41504;53.162;6.788;2023-11-21T14:57:10;9.10;99.90
55634;DHT22;41504;53.162;6.788;2023-11-21T14:59:46;9.10;99.90
55634;DHT22;41504;53.162;6.788;2023-11-21T15:02:14;9.10;99.90
55634;DHT22;41504;53.162;6.788;2023-11-21T15:04:43;9.20;99.90
55634;DHT22;41504;53.162;6.788;2023-11-21T15:07:10;9.10;99.90
55634;DHT22;41504;53.162;6.788;2023-11-21T15:09:39;9.10;99.90
55634;DHT22;41504;53.162;6.788;2023-11-21T15:12:07;9.10;99.90
55634;DHT22;41504;53.162;6.788;2023-11-21T15:14:47;9.10;99.90
55634;DHT22;41504;53.162;6.788;2023-11-21T15:17:17;9.10;99.90
55634;DHT22;41504;53.162;6.788;2023-11-21T15:19:54;9.00;99.90
55634;DHT22;41504;53.162;6.788;2023-11-21T15:22:20;9.00;99.90
55634;DHT22;41504;53.162;6.788;2023-11-21T15:24:46;9.00;99.90
55634;DHT22;41504;53.162;6.788;2023-11-21T15:27:13;9.00;99.90
55634;DHT22;41504;53.162;6.788;2023-11-21T15:29:39;8.90;99.90
55634;DHT22;41504;53.162;6.788;2023-11-21T15:32:06;8.90;99.90
55634;DHT22;41504;53.162;6.788;2023-11-21T15:34:36;8.90;99.90
55634;DHT22;41504;53.162;6.788;2023-11-21T15:37:03;8.90;99.90
55634;DHT22;41504;53.162;6.788;2023-11-21T15:39:29;8.80;99.90
55634;DHT22;41504;53.162;6.788;2023-11-21T15:41:57;8.80;99.90
55634;DHT22;41504;53.162;6.788;2023-11-21T15:44:24;8.80;99.90
55634;DHT22;41504;53.162;6.788;2023-11-21T15:46:55;8.70;99.90
55634;DHT22;41504;53.162;6.788;2023-11-21T15:49:21;8.70;99.90
55634;DHT22;41504;53.162;6.788;2023-11-21T15:51:50;8.60;99.90
55634;DHT22;41504;53.162;6.788;2023-11-21T15:54:24;8.60;99.90
55634;DHT22;41504;53.162;6.788;2023-11-21T15:56:51;8.50;99.90
55634;DHT22;41504;53.162;6.788;2023-11-21T15:59:18;8.50;99.90
55634;DHT22;41504;53.162;6.788;2023-11-21T16:01:44;8.50;99.90
55634;DHT22;41504;53.162;6.788;2023-11-21T16:04:13;8.40;99.90